Terminal Aerodrome Forecast
Issued by NWS Jackson, MS

Home | Current Version | Previous Version | Text Only | Print | Product List | Glossary On
Versions: 1 2 3 4 5 6 7 8 9 10 11 12 13
965
FTUS44 KMEG 271128
TAFTUP
TAF
KTUP 271128Z 2712/2812 36007KT P6SM -SHRA OVC070
     FM271600 16010KT P6SM VCSH OVC015
     FM280100 15012KT P6SM OVC025
     FM280600 18012KT P6SM OVC015
      TEMPO 2808/2812 4SM BR OVC007=

USA.gov is the U.S. government's official web portal to all federal, state and local government web resources and services.